Rechercher aéroport 
image banner adimage banner adimage banner ad
image banner ad

64CA - Tahoe Forest Hospital

Situé à Truckee, United States

ICAO - 64CA, IATA -

Données fournies par Airmate  

Information générale

Coordonnées: N39°19'27" W120°12'1"
Élévation : 5200 feet MSL.
Variation magnétique : 16° East
Voir autres Aéroports à California

Données opérationnelles

Special qualification required
Heure actuelle UTC:
Heure actuelle locale:
Météo à : KTRK - Truckee-Tahoe ( 5 km )
METAR: KTRK 270615Z AUTO 00000KT 7SM SCT070 OVC110 18/11 A3025 RMK AO2
TAF: KTRK 270557Z 2706/2806 VRB03KT P6SM VCSH SCT060 BKN100 FM271200 00000KT 5SM FU HZ BKN120 FM272100 28008G16KT 6SM FU HZ SCT030 BKN050 BKN090
Voir NOTAMs / SUP AIP / TFR affectant cet aéroport [VIEW]
Fréquences de communication: [VIEW]

Pistes:

Coordonnées de l'aéroport

Adresse: Truckee United States

Vue satellite de 64CA